sensor_id;sensor_type;location;lat;lon;timestamp;P1;durP1;ratioP1;P2;durP2;ratioP2
34805;SDS011;65084;42.196;25.326;2023-02-15T00:02:00;21.20;;;12.75;;
34805;SDS011;65084;42.196;25.326;2023-02-15T00:04:28;25.10;;;13.93;;
34805;SDS011;65084;42.196;25.326;2023-02-15T00:07:13;20.10;;;12.63;;
34805;SDS011;65084;42.196;25.326;2023-02-15T00:09:41;22.10;;;13.52;;
34805;SDS011;65084;42.196;25.326;2023-02-15T00:12:08;20.27;;;12.88;;
34805;SDS011;65084;42.196;25.326;2023-02-15T00:14:36;22.63;;;12.68;;
34805;SDS011;65084;42.196;25.326;2023-02-15T00:17:03;19.23;;;12.07;;
34805;SDS011;65084;42.196;25.326;2023-02-15T00:19:31;16.73;;;11.18;;
34805;SDS011;65084;42.196;25.326;2023-02-15T00:21:58;22.50;;;12.57;;
34805;SDS011;65084;42.196;25.326;2023-02-15T00:24:27;20.75;;;12.73;;
34805;SDS011;65084;42.196;25.326;2023-02-15T00:26:54;23.77;;;11.90;;
34805;SDS011;65084;42.196;25.326;2023-02-15T00:29:21;21.85;;;13.35;;
34805;SDS011;65084;42.196;25.326;2023-02-15T00:31:48;23.38;;;12.77;;
34805;SDS011;65084;42.196;25.326;2023-02-15T00:34:17;27.67;;;12.27;;
34805;SDS011;65084;42.196;25.326;2023-02-15T00:36:45;19.75;;;12.95;;
34805;SDS011;65084;42.196;25.326;2023-02-15T00:39:12;24.55;;;14.27;;
34805;SDS011;65084;42.196;25.326;2023-02-15T00:41:41;26.67;;;14.73;;
34805;SDS011;65084;42.196;25.326;2023-02-15T00:44:09;28.67;;;15.43;;
34805;SDS011;65084;42.196;25.326;2023-02-15T00:46:36;24.67;;;14.70;;
34805;SDS011;65084;42.196;25.326;2023-02-15T00:49:03;26.45;;;15.27;;
34805;SDS011;65084;42.196;25.326;2023-02-15T00:51:31;29.92;;;15.68;;
34805;SDS011;65084;42.196;25.326;2023-02-15T00:53:58;33.20;;;17.15;;
34805;SDS011;65084;42.196;25.326;2023-02-15T00:56:26;29.02;;;15.60;;
34805;SDS011;65084;42.196;25.326;2023-02-15T00:58:55;32.78;;;16.65;;
34805;SDS011;65084;42.196;25.326;2023-02-15T01:01:22;29.85;;;17.15;;
34805;SDS011;65084;42.196;25.326;2023-02-15T01:03:50;28.63;;;16.30;;
34805;SDS011;65084;42.196;25.326;2023-02-15T01:06:18;34.75;;;17.40;;
34805;SDS011;65084;42.196;25.326;2023-02-15T01:08:45;32.65;;;17.27;;
34805;SDS011;65084;42.196;25.326;2023-02-15T01:11:13;30.77;;;17.55;;
34805;SDS011;65084;42.196;25.326;2023-02-15T01:13:47;31.52;;;16.52;;
34805;SDS011;65084;42.196;25.326;2023-02-15T01:16:16;32.88;;;16.92;;
34805;SDS011;65084;42.196;25.326;2023-02-15T01:18:43;32.88;;;18.15;;
34805;SDS011;65084;42.196;25.326;2023-02-15T01:21:11;38.80;;;17.48;;
34805;SDS011;65084;42.196;25.326;2023-02-15T01:23:40;34.95;;;17.58;;
34805;SDS011;65084;42.196;25.326;2023-02-15T01:26:07;36.97;;;18.00;;
34805;SDS011;65084;42.196;25.326;2023-02-15T01:28:34;40.40;;;18.30;;
34805;SDS011;65084;42.196;25.326;2023-02-15T01:31:06;37.83;;;19.15;;
34805;SDS011;65084;42.196;25.326;2023-02-15T01:33:35;35.83;;;18.02;;
34805;SDS011;65084;42.196;25.326;2023-02-15T01:36:02;37.30;;;17.45;;
34805;SDS011;65084;42.196;25.326;2023-02-15T01:38:29;32.72;;;16.60;;
34805;SDS011;65084;42.196;25.326;2023-02-15T01:40:57;33.63;;;16.92;;
34805;SDS011;65084;42.196;25.326;2023-02-15T01:43:45;36.35;;;18.45;;
34805;SDS011;65084;42.196;25.326;2023-02-15T01:46:13;36.10;;;17.50;;
34805;SDS011;65084;42.196;25.326;2023-02-15T01:48:43;37.22;;;17.58;;
34805;SDS011;65084;42.196;25.326;2023-02-15T01:51:11;39.35;;;19.40;;
34805;SDS011;65084;42.196;25.326;2023-02-15T01:53:40;38.22;;;18.05;;
34805;SDS011;65084;42.196;25.326;2023-02-15T01:56:10;33.53;;;16.85;;
34805;SDS011;65084;42.196;25.326;2023-02-15T01:58:39;32.03;;;16.23;;
34805;SDS011;65084;42.196;25.326;2023-02-15T02:01:08;30.80;;;16.00;;
34805;SDS011;65084;42.196;25.326;2023-02-15T02:03:36;27.05;;;14.13;;
34805;SDS011;65084;42.196;25.326;2023-02-15T02:06:07;26.75;;;13.82;;
34805;SDS011;65084;42.196;25.326;2023-02-15T02:08:34;30.15;;;14.63;;
34805;SDS011;65084;42.196;25.326;2023-02-15T02:11:02;27.67;;;14.38;;
34805;SDS011;65084;42.196;25.326;2023-02-15T02:13:29;38.08;;;13.13;;
34805;SDS011;65084;42.196;25.326;2023-02-15T02:15:57;26.73;;;14.55;;
34805;SDS011;65084;42.196;25.326;2023-02-15T02:18:30;22.40;;;12.98;;
34805;SDS011;65084;42.196;25.326;2023-02-15T02:21:11;24.65;;;13.18;;
34805;SDS011;65084;42.196;25.326;2023-02-15T02:23:50;21.17;;;12.55;;
34805;SDS011;65084;42.196;25.326;2023-02-15T02:26:24;22.75;;;13.35;;
34805;SDS011;65084;42.196;25.326;2023-02-15T02:29:11;23.88;;;13.80;;
34805;SDS011;65084;42.196;25.326;2023-02-15T02:31:49;22.67;;;13.25;;
34805;SDS011;65084;42.196;25.326;2023-02-15T02:34:23;22.48;;;13.35;;
34805;SDS011;65084;42.196;25.326;2023-02-15T02:36:55;24.13;;;12.48;;
34805;SDS011;65084;42.196;25.326;2023-02-15T02:39:27;22.67;;;12.98;;
34805;SDS011;65084;42.196;25.326;2023-02-15T02:41:56;22.23;;;12.52;;
34805;SDS011;65084;42.196;25.326;2023-02-15T02:44:26;23.52;;;12.80;;
34805;SDS011;65084;42.196;25.326;2023-02-15T02:46:57;19.27;;;12.20;;
34805;SDS011;65084;42.196;25.326;2023-02-15T02:49:33;20.95;;;12.93;;
34805;SDS011;65084;42.196;25.326;2023-02-15T02:52:04;18.63;;;11.73;;
34805;SDS011;65084;42.196;25.326;2023-02-15T02:54:31;19.25;;;12.05;;
34805;SDS011;65084;42.196;25.326;2023-02-15T02:57:01;25.00;;;13.55;;
34805;SDS011;65084;42.196;25.326;2023-02-15T02:59:30;26.52;;;13.23;;
34805;SDS011;65084;42.196;25.326;2023-02-15T03:01:59;25.45;;;14.10;;
34805;SDS011;65084;42.196;25.326;2023-02-15T03:04:30;22.40;;;13.30;;
34805;SDS011;65084;42.196;25.326;2023-02-15T03:07:00;20.98;;;12.85;;
34805;SDS011;65084;42.196;25.326;2023-02-15T03:09:28;19.88;;;12.52;;
34805;SDS011;65084;42.196;25.326;2023-02-15T03:12:06;20.30;;;13.55;;
34805;SDS011;65084;42.196;25.326;2023-02-15T03:14:34;22.55;;;13.57;;
34805;SDS011;65084;42.196;25.326;2023-02-15T03:17:02;24.70;;;13.73;;
34805;SDS011;65084;42.196;25.326;2023-02-15T03:19:31;26.25;;;14.23;;
34805;SDS011;65084;42.196;25.326;2023-02-15T03:22:03;28.88;;;13.82;;
34805;SDS011;65084;42.196;25.326;2023-02-15T03:24:34;25.30;;;14.55;;
34805;SDS011;65084;42.196;25.326;2023-02-15T03:27:02;27.95;;;13.88;;
34805;SDS011;65084;42.196;25.326;2023-02-15T03:29:31;25.65;;;14.02;;
34805;SDS011;65084;42.196;25.326;2023-02-15T03:31:59;25.88;;;14.65;;
34805;SDS011;65084;42.196;25.326;2023-02-15T03:34:27;20.20;;;13.30;;
34805;SDS011;65084;42.196;25.326;2023-02-15T03:36:56;23.38;;;13.77;;
34805;SDS011;65084;42.196;25.326;2023-02-15T03:39:27;26.20;;;13.80;;
34805;SDS011;65084;42.196;25.326;2023-02-15T03:41:57;22.35;;;14.20;;
34805;SDS011;65084;42.196;25.326;2023-02-15T03:44:27;21.83;;;13.60;;
34805;SDS011;65084;42.196;25.326;2023-02-15T03:46:56;24.40;;;13.88;;
34805;SDS011;65084;42.196;25.326;2023-02-15T03:49:27;27.42;;;14.07;;
34805;SDS011;65084;42.196;25.326;2023-02-15T03:51:56;22.75;;;13.85;;
34805;SDS011;65084;42.196;25.326;2023-02-15T03:54:25;29.48;;;16.05;;
34805;SDS011;65084;42.196;25.326;2023-02-15T03:57:11;32.45;;;16.45;;
34805;SDS011;65084;42.196;25.326;2023-02-15T03:59:56;39.17;;;19.15;;
34805;SDS011;65084;42.196;25.326;2023-02-15T04:02:43;37.25;;;18.90;;
34805;SDS011;65084;42.196;25.326;2023-02-15T04:05:13;33.53;;;18.98;;
34805;SDS011;65084;42.196;25.326;2023-02-15T04:07:40;26.17;;;15.30;;
34805;SDS011;65084;42.196;25.326;2023-02-15T04:10:08;31.52;;;17.48;;
34805;SDS011;65084;42.196;25.326;2023-02-15T04:12:54;32.63;;;17.83;;
34805;SDS011;65084;42.196;25.326;2023-02-15T04:15:22;35.88;;;18.63;;
34805;SDS011;65084;42.196;25.326;2023-02-15T04:18:07;46.85;;;24.10;;
34805;SDS011;65084;42.196;25.326;2023-02-15T04:20:35;49.13;;;25.17;;
34805;SDS011;65084;42.196;25.326;2023-02-15T04:23:19;46.20;;;25.17;;
34805;SDS011;65084;42.196;25.326;2023-02-15T04:26:04;35.97;;;19.88;;
34805;SDS011;65084;42.196;25.326;2023-02-15T04:28:33;36.65;;;18.23;;
34805;SDS011;65084;42.196;25.326;2023-02-15T04:31:00;29.88;;;16.52;;
34805;SDS011;65084;42.196;25.326;2023-02-15T04:33:28;32.28;;;17.80;;
34805;SDS011;65084;42.196;25.326;2023-02-15T04:35:55;29.85;;;16.73;;
34805;SDS011;65084;42.196;25.326;2023-02-15T04:38:22;30.40;;;16.45;;
34805;SDS011;65084;42.196;25.326;2023-02-15T04:40:50;30.48;;;16.00;;
34805;SDS011;65084;42.196;25.326;2023-02-15T04:43:17;33.30;;;16.58;;
34805;SDS011;65084;42.196;25.326;2023-02-15T04:45:48;30.58;;;17.40;;
34805;SDS011;65084;42.196;25.326;2023-02-15T04:48:16;30.35;;;15.88;;
34805;SDS011;65084;42.196;25.326;2023-02-15T04:50:44;33.30;;;17.38;;
34805;SDS011;65084;42.196;25.326;2023-02-15T04:53:11;32.03;;;17.08;;
34805;SDS011;65084;42.196;25.326;2023-02-15T04:55:38;29.80;;;16.42;;
34805;SDS011;65084;42.196;25.326;2023-02-15T04:58:06;26.58;;;15.82;;
34805;SDS011;65084;42.196;25.326;2023-02-15T05:00:33;35.33;;;18.38;;
34805;SDS011;65084;42.196;25.326;2023-02-15T05:03:02;33.28;;;16.05;;
34805;SDS011;65084;42.196;25.326;2023-02-15T05:05:29;51.75;;;17.60;;
34805;SDS011;65084;42.196;25.326;2023-02-15T05:07:56;37.47;;;19.45;;
34805;SDS011;65084;42.196;25.326;2023-02-15T05:10:23;155.30;;;59.55;;
34805;SDS011;65084;42.196;25.326;2023-02-15T05:12:51;133.23;;;53.13;;
34805;SDS011;65084;42.196;25.326;2023-02-15T05:15:18;74.13;;;35.20;;
34805;SDS011;65084;42.196;25.326;2023-02-15T05:17:45;70.35;;;32.72;;
34805;SDS011;65084;42.196;25.326;2023-02-15T05:20:14;64.18;;;29.45;;
34805;SDS011;65084;42.196;25.326;2023-02-15T05:22:41;53.13;;;25.48;;
34805;SDS011;65084;42.196;25.326;2023-02-15T05:25:09;45.42;;;22.80;;
34805;SDS011;65084;42.196;25.326;2023-02-15T05:27:54;42.28;;;22.42;;
34805;SDS011;65084;42.196;25.326;2023-02-15T05:30:39;43.83;;;22.40;;
34805;SDS011;65084;42.196;25.326;2023-02-15T05:33:06;41.53;;;21.88;;
34805;SDS011;65084;42.196;25.326;2023-02-15T05:35:35;42.25;;;20.00;;
34805;SDS011;65084;42.196;25.326;2023-02-15T05:38:02;35.42;;;18.20;;
34805;SDS011;65084;42.196;25.326;2023-02-15T05:40:29;35.05;;;17.80;;
34805;SDS011;65084;42.196;25.326;2023-02-15T05:42:57;40.63;;;18.90;;
34805;SDS011;65084;42.196;25.326;2023-02-15T05:45:24;39.38;;;20.25;;
34805;SDS011;65084;42.196;25.326;2023-02-15T05:47:51;53.10;;;24.92;;
34805;SDS011;65084;42.196;25.326;2023-02-15T05:50:19;46.25;;;23.13;;
34805;SDS011;65084;42.196;25.326;2023-02-15T05:52:47;45.33;;;22.55;;
34805;SDS011;65084;42.196;25.326;2023-02-15T05:55:15;41.15;;;22.63;;
34805;SDS011;65084;42.196;25.326;2023-02-15T05:57:42;48.13;;;23.02;;
34805;SDS011;65084;42.196;25.326;2023-02-15T06:00:10;67.70;;;31.83;;
34805;SDS011;65084;42.196;25.326;2023-02-15T06:02:39;69.57;;;32.53;;
34805;SDS011;65084;42.196;25.326;2023-02-15T06:05:06;82.00;;;33.63;;
34805;SDS011;65084;42.196;25.326;2023-02-15T06:07:34;64.97;;;30.58;;
34805;SDS011;65084;42.196;25.326;2023-02-15T06:10:03;64.18;;;31.27;;
34805;SDS011;65084;42.196;25.326;2023-02-15T06:12:30;58.90;;;27.00;;
34805;SDS011;65084;42.196;25.326;2023-02-15T06:14:57;80.00;;;34.65;;
34805;SDS011;65084;42.196;25.326;2023-02-15T06:17:25;89.00;;;43.35;;
34805;SDS011;65084;42.196;25.326;2023-02-15T06:19:52;79.00;;;34.92;;
34805;SDS011;65084;42.196;25.326;2023-02-15T06:22:19;71.07;;;33.38;;
34805;SDS011;65084;42.196;25.326;2023-02-15T06:24:47;69.80;;;28.67;;
34805;SDS011;65084;42.196;25.326;2023-02-15T06:27:16;75.40;;;31.50;;
34805;SDS011;65084;42.196;25.326;2023-02-15T06:29:43;86.68;;;35.72;;
34805;SDS011;65084;42.196;25.326;2023-02-15T06:32:10;64.60;;;28.65;;
34805;SDS011;65084;42.196;25.326;2023-02-15T06:34:38;76.40;;;28.20;;
34805;SDS011;65084;42.196;25.326;2023-02-15T06:37:05;56.30;;;27.25;;
34805;SDS011;65084;42.196;25.326;2023-02-15T06:39:33;58.45;;;26.80;;
34805;SDS011;65084;42.196;25.326;2023-02-15T06:42:00;52.88;;;25.35;;
34805;SDS011;65084;42.196;25.326;2023-02-15T06:44:29;61.40;;;23.20;;
34805;SDS011;65084;42.196;25.326;2023-02-15T06:46:56;44.25;;;22.00;;
34805;SDS011;65084;42.196;25.326;2023-02-15T06:49:23;49.22;;;21.48;;
34805;SDS011;65084;42.196;25.326;2023-02-15T06:51:51;44.72;;;23.38;;
34805;SDS011;65084;42.196;25.326;2023-02-15T06:54:18;43.42;;;21.67;;
34805;SDS011;65084;42.196;25.326;2023-02-15T06:56:45;45.55;;;23.15;;
34805;SDS011;65084;42.196;25.326;2023-02-15T06:59:12;39.20;;;19.50;;
34805;SDS011;65084;42.196;25.326;2023-02-15T07:01:41;31.20;;;17.27;;
34805;SDS011;65084;42.196;25.326;2023-02-15T07:04:09;33.25;;;17.00;;
34805;SDS011;65084;42.196;25.326;2023-02-15T07:06:36;30.67;;;17.15;;
34805;SDS011;65084;42.196;25.326;2023-02-15T07:09:03;32.45;;;18.17;;
34805;SDS011;65084;42.196;25.326;2023-02-15T07:11:31;29.80;;;17.63;;
34805;SDS011;65084;42.196;25.326;2023-02-15T07:14:16;30.05;;;17.50;;
34805;SDS011;65084;42.196;25.326;2023-02-15T07:16:44;29.45;;;17.83;;
34805;SDS011;65084;42.196;25.326;2023-02-15T07:19:12;30.08;;;18.02;;
34805;SDS011;65084;42.196;25.326;2023-02-15T07:21:39;32.90;;;17.88;;
34805;SDS011;65084;42.196;25.326;2023-02-15T07:24:06;32.70;;;18.27;;
34805;SDS011;65084;42.196;25.326;2023-02-15T07:26:33;32.90;;;19.45;;
34805;SDS011;65084;42.196;25.326;2023-02-15T07:29:01;37.35;;;21.15;;
34805;SDS011;65084;42.196;25.326;2023-02-15T07:31:28;34.92;;;21.95;;
34805;SDS011;65084;42.196;25.326;2023-02-15T07:33:57;43.10;;;21.45;;
34805;SDS011;65084;42.196;25.326;2023-02-15T07:36:24;39.17;;;23.17;;
34805;SDS011;65084;42.196;25.326;2023-02-15T07:38:52;37.17;;;21.23;;
34805;SDS011;65084;42.196;25.326;2023-02-15T07:41:19;39.20;;;21.67;;
34805;SDS011;65084;42.196;25.326;2023-02-15T07:43:46;39.60;;;22.70;;
34805;SDS011;65084;42.196;25.326;2023-02-15T07:46:14;37.20;;;21.60;;
34805;SDS011;65084;42.196;25.326;2023-02-15T07:48:42;34.58;;;21.67;;
34805;SDS011;65084;42.196;25.326;2023-02-15T07:51:11;36.58;;;21.70;;
34805;SDS011;65084;42.196;25.326;2023-02-15T07:53:39;50.65;;;27.05;;
34805;SDS011;65084;42.196;25.326;2023-02-15T07:56:07;48.22;;;26.58;;
34805;SDS011;65084;42.196;25.326;2023-02-15T07:58:35;35.97;;;22.67;;
34805;SDS011;65084;42.196;25.326;2023-02-15T08:01:21;36.88;;;23.25;;
34805;SDS011;65084;42.196;25.326;2023-02-15T08:03:49;39.92;;;24.38;;
34805;SDS011;65084;42.196;25.326;2023-02-15T08:06:17;46.47;;;24.88;;
34805;SDS011;65084;42.196;25.326;2023-02-15T08:08:45;44.13;;;25.08;;
34805;SDS011;65084;42.196;25.326;2023-02-15T08:11:17;37.85;;;22.83;;
34805;SDS011;65084;42.196;25.326;2023-02-15T08:16:28;37.97;;;23.15;;
34805;SDS011;65084;42.196;25.326;2023-02-15T08:18:56;40.58;;;24.80;;
34805;SDS011;65084;42.196;25.326;2023-02-15T08:21:26;38.97;;;23.60;;
34805;SDS011;65084;42.196;25.326;2023-02-15T08:23:54;37.22;;;22.70;;
34805;SDS011;65084;42.196;25.326;2023-02-15T08:26:21;40.47;;;24.25;;
34805;SDS011;65084;42.196;25.326;2023-02-15T08:28:49;34.88;;;24.02;;
34805;SDS011;65084;42.196;25.326;2023-02-15T08:31:17;38.90;;;23.90;;
34805;SDS011;65084;42.196;25.326;2023-02-15T08:33:45;47.33;;;29.20;;
34805;SDS011;65084;42.196;25.326;2023-02-15T08:36:13;41.35;;;25.90;;
34805;SDS011;65084;42.196;25.326;2023-02-15T08:38:42;41.92;;;24.88;;
34805;SDS011;65084;42.196;25.326;2023-02-15T08:41:11;40.50;;;24.95;;
34805;SDS011;65084;42.196;25.326;2023-02-15T08:43:38;46.95;;;26.00;;
34805;SDS011;65084;42.196;25.326;2023-02-15T08:46:05;35.88;;;23.45;;
34805;SDS011;65084;42.196;25.326;2023-02-15T08:48:33;35.47;;;23.05;;
34805;SDS011;65084;42.196;25.326;2023-02-15T08:51:03;36.78;;;23.48;;
34805;SDS011;65084;42.196;25.326;2023-02-15T08:53:31;37.35;;;23.38;;
34805;SDS011;65084;42.196;25.326;2023-02-15T08:56:00;31.17;;;21.60;;
34805;SDS011;65084;42.196;25.326;2023-02-15T08:58:28;34.67;;;23.35;;
34805;SDS011;65084;42.196;25.326;2023-02-15T09:00:56;36.97;;;22.00;;
34805;SDS011;65084;42.196;25.326;2023-02-15T09:03:23;35.05;;;21.83;;
34805;SDS011;65084;42.196;25.326;2023-02-15T09:05:57;33.55;;;22.20;;
34805;SDS011;65084;42.196;25.326;2023-02-15T09:08:25;35.83;;;22.40;;
34805;SDS011;65084;42.196;25.326;2023-02-15T09:10:52;34.35;;;22.75;;
34805;SDS011;65084;42.196;25.326;2023-02-15T09:13:21;37.33;;;23.40;;
34805;SDS011;65084;42.196;25.326;2023-02-15T09:15:49;38.35;;;24.20;;
34805;SDS011;65084;42.196;25.326;2023-02-15T09:18:16;40.50;;;25.30;;
34805;SDS011;65084;42.196;25.326;2023-02-15T09:20:43;34.15;;;21.85;;
34805;SDS011;65084;42.196;25.326;2023-02-15T09:23:11;34.95;;;21.30;;
34805;SDS011;65084;42.196;25.326;2023-02-15T09:25:40;29.02;;;20.25;;
34805;SDS011;65084;42.196;25.326;2023-02-15T09:28:08;38.50;;;21.48;;
34805;SDS011;65084;42.196;25.326;2023-02-15T09:30:37;34.85;;;21.55;;
34805;SDS011;65084;42.196;25.326;2023-02-15T09:33:04;28.80;;;19.55;;
34805;SDS011;65084;42.196;25.326;2023-02-15T09:35:32;32.67;;;21.65;;
34805;SDS011;65084;42.196;25.326;2023-02-15T09:37:59;31.08;;;21.38;;
34805;SDS011;65084;42.196;25.326;2023-02-15T09:40:26;30.42;;;20.48;;
34805;SDS011;65084;42.196;25.326;2023-02-15T09:43:09;33.30;;;21.85;;
34805;SDS011;65084;42.196;25.326;2023-02-15T09:45:51;32.25;;;21.40;;
34805;SDS011;65084;42.196;25.326;2023-02-15T09:51:28;27.17;;;19.13;;
34805;SDS011;65084;42.196;25.326;2023-02-15T09:54:04;28.73;;;19.60;;
34805;SDS011;65084;42.196;25.326;2023-02-15T09:56:37;29.30;;;19.38;;
34805;SDS011;65084;42.196;25.326;2023-02-15T09:59:10;30.08;;;20.75;;
34805;SDS011;65084;42.196;25.326;2023-02-15T10:01:45;32.22;;;21.05;;
34805;SDS011;65084;42.196;25.326;2023-02-15T10:04:20;32.50;;;20.67;;
34805;SDS011;65084;42.196;25.326;2023-02-15T10:06:55;28.70;;;19.65;;
34805;SDS011;65084;42.196;25.326;2023-02-15T10:09:35;27.83;;;20.10;;
34805;SDS011;65084;42.196;25.326;2023-02-15T10:12:11;28.83;;;20.67;;
34805;SDS011;65084;42.196;25.326;2023-02-15T10:14:49;29.83;;;20.80;;
34805;SDS011;65084;42.196;25.326;2023-02-15T10:17:24;29.25;;;19.75;;
34805;SDS011;65084;42.196;25.326;2023-02-15T10:19:59;30.50;;;21.77;;
34805;SDS011;65084;42.196;25.326;2023-02-15T10:22:33;37.30;;;21.23;;
34805;SDS011;65084;42.196;25.326;2023-02-15T10:25:07;29.55;;;20.98;;
34805;SDS011;65084;42.196;25.326;2023-02-15T10:27:39;31.85;;;21.52;;
34805;SDS011;65084;42.196;25.326;2023-02-15T10:30:11;35.90;;;21.88;;
34805;SDS011;65084;42.196;25.326;2023-02-15T10:32:40;27.23;;;18.75;;
34805;SDS011;65084;42.196;25.326;2023-02-15T10:35:11;22.73;;;16.63;;
34805;SDS011;65084;42.196;25.326;2023-02-15T10:37:58;25.13;;;17.13;;
34805;SDS011;65084;42.196;25.326;2023-02-15T10:40:31;27.35;;;18.92;;
34805;SDS011;65084;42.196;25.326;2023-02-15T10:43:05;24.42;;;17.35;;
34805;SDS011;65084;42.196;25.326;2023-02-15T10:45:35;26.67;;;18.58;;
34805;SDS011;65084;42.196;25.326;2023-02-15T10:48:23;26.17;;;17.30;;
34805;SDS011;65084;42.196;25.326;2023-02-15T10:50:52;24.33;;;17.10;;
34805;SDS011;65084;42.196;25.326;2023-02-15T10:53:33;26.63;;;17.75;;
34805;SDS011;65084;42.196;25.326;2023-02-15T10:56:06;24.27;;;17.35;;
34805;SDS011;65084;42.196;25.326;2023-02-15T10:58:38;21.85;;;14.55;;
34805;SDS011;65084;42.196;25.326;2023-02-15T11:01:11;18.83;;;13.43;;
34805;SDS011;65084;42.196;25.326;2023-02-15T11:03:45;20.73;;;14.80;;
34805;SDS011;65084;42.196;25.326;2023-02-15T11:06:17;23.55;;;15.60;;
34805;SDS011;65084;42.196;25.326;2023-02-15T11:08:46;18.77;;;14.23;;
34805;SDS011;65084;42.196;25.326;2023-02-15T11:11:15;21.40;;;14.15;;
34805;SDS011;65084;42.196;25.326;2023-02-15T11:13:47;17.27;;;12.65;;
34805;SDS011;65084;42.196;25.326;2023-02-15T11:16:16;16.33;;;12.20;;
34805;SDS011;65084;42.196;25.326;2023-02-15T11:18:46;15.00;;;11.98;;
34805;SDS011;65084;42.196;25.326;2023-02-15T11:21:17;16.90;;;12.88;;
34805;SDS011;65084;42.196;25.326;2023-02-15T11:23:46;19.30;;;12.15;;
34805;SDS011;65084;42.196;25.326;2023-02-15T11:26:14;17.92;;;12.32;;
34805;SDS011;65084;42.196;25.326;2023-02-15T11:28:43;15.82;;;11.73;;
34805;SDS011;65084;42.196;25.326;2023-02-15T11:31:12;16.25;;;11.25;;
34805;SDS011;65084;42.196;25.326;2023-02-15T11:33:41;14.88;;;10.85;;
34805;SDS011;65084;42.196;25.326;2023-02-15T11:36:11;14.60;;;10.60;;
34805;SDS011;65084;42.196;25.326;2023-02-15T11:38:42;17.33;;;10.43;;
34805;SDS011;65084;42.196;25.326;2023-02-15T11:41:10;15.75;;;11.55;;
34805;SDS011;65084;42.196;25.326;2023-02-15T11:43:39;19.23;;;12.02;;
34805;SDS011;65084;42.196;25.326;2023-02-15T11:46:08;14.18;;;11.80;;
34805;SDS011;65084;42.196;25.326;2023-02-15T11:48:37;15.05;;;11.27;;
34805;SDS011;65084;42.196;25.326;2023-02-15T11:51:05;15.00;;;11.05;;
34805;SDS011;65084;42.196;25.326;2023-02-15T11:53:35;15.20;;;11.75;;
34805;SDS011;65084;42.196;25.326;2023-02-15T11:56:03;14.95;;;12.13;;
34805;SDS011;65084;42.196;25.326;2023-02-15T11:58:32;17.77;;;13.75;;
34805;SDS011;65084;42.196;25.326;2023-02-15T12:01:06;20.80;;;14.88;;
34805;SDS011;65084;42.196;25.326;2023-02-15T12:03:40;23.40;;;14.77;;
34805;SDS011;65084;42.196;25.326;2023-02-15T12:06:11;16.20;;;12.40;;
34805;SDS011;65084;42.196;25.326;2023-02-15T12:08:42;16.77;;;12.25;;
34805;SDS011;65084;42.196;25.326;2023-02-15T12:11:11;17.25;;;12.65;;
34805;SDS011;65084;42.196;25.326;2023-02-15T12:13:53;26.23;;;18.50;;
34805;SDS011;65084;42.196;25.326;2023-02-15T12:16:21;22.10;;;15.82;;
34805;SDS011;65084;42.196;25.326;2023-02-15T12:18:48;19.85;;;13.50;;
34805;SDS011;65084;42.196;25.326;2023-02-15T12:21:23;17.92;;;13.25;;
34805;SDS011;65084;42.196;25.326;2023-02-15T12:23:53;16.77;;;12.38;;
34805;SDS011;65084;42.196;25.326;2023-02-15T12:26:25;15.07;;;11.88;;
34805;SDS011;65084;42.196;25.326;2023-02-15T12:28:53;16.88;;;12.02;;
34805;SDS011;65084;42.196;25.326;2023-02-15T12:31:25;13.48;;;10.95;;
34805;SDS011;65084;42.196;25.326;2023-02-15T12:33:53;20.58;;;13.02;;
34805;SDS011;65084;42.196;25.326;2023-02-15T12:36:24;16.15;;;11.82;;
34805;SDS011;65084;42.196;25.326;2023-02-15T12:39:05;14.15;;;11.52;;
34805;SDS011;65084;42.196;25.326;2023-02-15T12:41:32;15.48;;;11.43;;
34805;SDS011;65084;42.196;25.326;2023-02-15T12:44:04;15.82;;;10.82;;
34805;SDS011;65084;42.196;25.326;2023-02-15T12:46:32;14.88;;;11.98;;
34805;SDS011;65084;42.196;25.326;2023-02-15T12:49:07;15.40;;;12.30;;
34805;SDS011;65084;42.196;25.326;2023-02-15T12:51:44;12.63;;;11.05;;
34805;SDS011;65084;42.196;25.326;2023-02-15T12:54:25;16.45;;;11.82;;
34805;SDS011;65084;42.196;25.326;2023-02-15T12:56:54;15.85;;;12.30;;
34805;SDS011;65084;42.196;25.326;2023-02-15T12:59:23;14.05;;;11.43;;
34805;SDS011;65084;42.196;25.326;2023-02-15T13:01:50;18.38;;;12.30;;
34805;SDS011;65084;42.196;25.326;2023-02-15T13:04:21;16.05;;;10.63;;
34805;SDS011;65084;42.196;25.326;2023-02-15T13:06:50;13.30;;;11.02;;
34805;SDS011;65084;42.196;25.326;2023-02-15T13:09:19;13.32;;;11.35;;
34805;SDS011;65084;42.196;25.326;2023-02-15T13:11:48;14.40;;;11.05;;
34805;SDS011;65084;42.196;25.326;2023-02-15T13:14:16;15.35;;;10.57;;
34805;SDS011;65084;42.196;25.326;2023-02-15T13:16:45;17.35;;;13.45;;
34805;SDS011;65084;42.196;25.326;2023-02-15T13:19:14;12.80;;;9.98;;
34805;SDS011;65084;42.196;25.326;2023-02-15T13:21:44;14.98;;;10.82;;
34805;SDS011;65084;42.196;25.326;2023-02-15T13:24:15;13.15;;;10.05;;
34805;SDS011;65084;42.196;25.326;2023-02-15T13:26:44;13.63;;;10.77;;
34805;SDS011;65084;42.196;25.326;2023-02-15T13:29:15;13.40;;;11.05;;
34805;SDS011;65084;42.196;25.326;2023-02-15T13:31:44;11.20;;;9.88;;
34805;SDS011;65084;42.196;25.326;2023-02-15T13:34:14;15.20;;;9.65;;
34805;SDS011;65084;42.196;25.326;2023-02-15T13:36:46;14.38;;;10.40;;
34805;SDS011;65084;42.196;25.326;2023-02-15T13:39:19;12.65;;;10.32;;
34805;SDS011;65084;42.196;25.326;2023-02-15T13:41:51;15.90;;;10.45;;
34805;SDS011;65084;42.196;25.326;2023-02-15T13:44:24;18.20;;;11.68;;
34805;SDS011;65084;42.196;25.326;2023-02-15T13:46:59;27.70;;;14.40;;
34805;SDS011;65084;42.196;25.326;2023-02-15T13:49:33;24.83;;;15.80;;
34805;SDS011;65084;42.196;25.326;2023-02-15T13:54:36;24.60;;;13.23;;
34805;SDS011;65084;42.196;25.326;2023-02-15T13:57:16;16.25;;;12.50;;
34805;SDS011;65084;42.196;25.326;2023-02-15T13:59:54;14.85;;;11.63;;
34805;SDS011;65084;42.196;25.326;2023-02-15T14:05:15;16.73;;;12.02;;
34805;SDS011;65084;42.196;25.326;2023-02-15T14:07:49;17.63;;;11.85;;
34805;SDS011;65084;42.196;25.326;2023-02-15T14:10:29;15.63;;;11.48;;
34805;SDS011;65084;42.196;25.326;2023-02-15T14:13:03;15.88;;;11.30;;
34805;SDS011;65084;42.196;25.326;2023-02-15T14:15:35;12.63;;;10.32;;
34805;SDS011;65084;42.196;25.326;2023-02-15T14:18:11;18.55;;;12.80;;
34805;SDS011;65084;42.196;25.326;2023-02-15T14:20:43;23.65;;;14.18;;
34805;SDS011;65084;42.196;25.326;2023-02-15T14:23:18;21.45;;;15.25;;
34805;SDS011;65084;42.196;25.326;2023-02-15T14:25:53;26.88;;;15.13;;
34805;SDS011;65084;42.196;25.326;2023-02-15T14:28:25;17.42;;;12.70;;
34805;SDS011;65084;42.196;25.326;2023-02-15T14:30:56;17.92;;;12.32;;
34805;SDS011;65084;42.196;25.326;2023-02-15T14:33:31;18.45;;;12.45;;
34805;SDS011;65084;42.196;25.326;2023-02-15T14:35:59;16.30;;;12.00;;
34805;SDS011;65084;42.196;25.326;2023-02-15T14:38:32;16.67;;;11.60;;